This is the latest recevied weather packets stored in our database for station/object W4SKW. If no packets are shown the sender has not sent any weather packets the latest 10 day(s).
| Time | Temp. | Humidity | Pressure | Rain* | Wind** | Luminosity | Snow |
|---|---|---|---|---|---|---|---|
| 1778110591 | 17.78° C | 97% | 1014.4 hPa | 0 mm | - | 5 W/m² | - |
| 1778110288 | 17.78° C | 97% | 1014.1 hPa | 1.78 mm | - | 4 W/m² | - |
| 1778109984 | 17.78° C | 97% | 1013.9 hPa | 1.78 mm | - | 7 W/m² | - |
| 1778109680 | 17.78° C | 97% | 1014.7 hPa | 1.78 mm | - | 18 W/m² | - |
| 1778109377 | 17.78° C | 97% | 1014.1 hPa | 36.58 mm | - | 46 W/m² | - |
| 1778109076 | 17.78° C | 97% | 1014.2 hPa | 36.58 mm | - | 56 W/m² | - |
| 1778108772 | 18.33° C | 97% | 1016.1 hPa | 0 mm | - | 5 W/m² | - |
| 1778108469 | 18.33° C | 97% | 1015.6 hPa | 0 mm | - | 1 W/m² | - |
| 1778108166 | 17.78° C | 97% | 1012.6 hPa | 1.27 mm | - | 7 W/m² | - |
| 1778107862 | 18.33° C | 97% | 1013.5 hPa | 1.27 mm | - | 6 W/m² | - |
| 1778107559 | 18.33° C | 97% | 1014.1 hPa | 1.78 mm | - | 2 W/m² | - |
| 1778107256 | 18.33° C | 97% | 1014.1 hPa | 1.78 mm | - | 2 W/m² | - |
| 1778106951 | 18.33° C | 97% | 1013.1 hPa | 1.78 mm | - | 4 W/m² | - |
| 1778106648 | 18.33° C | 97% | 1012.9 hPa | 0 mm | - | 5 W/m² | - |
| 1778106345 | 18.33° C | 97% | 1012.9 hPa | 0 mm | - | 3 W/m² | - |
| 1778106041 | 18.33° C | 97% | 1013.2 hPa | 0 mm | - | 8 W/m² | - |
| 1778105738 | 18.33° C | 97% | 1013.5 hPa | 0 mm | - | 4 W/m² | - |
| 1778105359 | 17.78° C | 96% | 1013.3 hPa | 0 mm | - | 7 W/m² | - |
| 1778105054 | 17.78° C | 96% | 1013.3 hPa | 0 mm | - | 7 W/m² | - |
| 1778104751 | 18.33° C | 96% | 1013.6 hPa | 0 mm | - | 10 W/m² | - |
| 1778104447 | 17.78° C | 96% | 1013.6 hPa | 0 mm | - | 18 W/m² | - |
| 1778104143 | 18.33° C | 96% | 1013.6 hPa | 0 mm | - | 19 W/m² | - |
| 1778103840 | 18.33° C | 96% | 1013.8 hPa | 1.27 mm | - | 24 W/m² | - |
| 1778103537 | 17.78° C | 96% | 1013.7 hPa | 1.78 mm | - | 10 W/m² | - |
| 1778103235 | 18.33° C | 96% | 1013.7 hPa | 1.78 mm | - | 10 W/m² | - |
* Rain latest hour (hover to see other rain measurements)
** Current wind speed in m/s (hover to see current wind gust speed)